createdAt,value
2019-05-17T00:01:03.887Z,2.08
2019-05-17T00:03:30.091Z,1.42
2019-05-17T00:05:57.044Z,1.40
2019-05-17T00:08:33.663Z,1.75
2019-05-17T00:10:51.339Z,1.80
2019-05-17T00:13:17.563Z,1.55
2019-05-17T00:15:43.695Z,1.75
2019-05-17T00:18:09.903Z,2.90
2019-05-17T00:20:37.424Z,1.95
2019-05-17T00:23:04.051Z,2.35
2019-05-17T00:25:30.666Z,2.62
2019-05-17T00:27:56.864Z,2.45
2019-05-17T00:30:22.956Z,3.90
2019-05-17T00:32:49.112Z,2.80
2019-05-17T00:35:17.561Z,2.85
2019-05-17T00:37:43.413Z,3.00
2019-05-17T00:40:10.229Z,3.80
2019-05-17T00:42:37.194Z,2.83
2019-05-17T00:45:06.772Z,2.87
2019-05-17T00:47:33.183Z,2.98
2019-05-17T00:49:59.424Z,3.08
2019-05-17T00:52:27.230Z,3.22
2019-05-17T00:54:56.234Z,2.72
2019-05-17T00:57:22.185Z,2.40
2019-05-17T00:59:48.520Z,2.55
2019-05-17T01:02:16.291Z,2.20
2019-05-17T01:04:43.061Z,2.10
2019-05-17T01:07:09.187Z,3.33
2019-05-17T01:09:36.626Z,2.22
2019-05-17T01:12:03.863Z,2.85
2019-05-17T01:14:30.056Z,2.55
2019-05-17T01:16:56.573Z,2.60
2019-05-17T01:19:22.761Z,3.35
2019-05-17T01:21:48.909Z,4.20
2019-05-17T01:24:17.101Z,3.52
2019-05-17T01:26:43.032Z,3.30
2019-05-17T01:29:09.138Z,3.17
2019-05-17T01:31:37.293Z,3.55
2019-05-17T01:34:03.386Z,3.95
2019-05-17T01:36:29.618Z,2.58
2019-05-17T01:38:57.678Z,2.40
2019-05-17T01:41:23.863Z,3.12
2019-05-17T01:43:50.168Z,2.60
2019-05-17T01:46:17.223Z,4.10
2019-05-17T01:48:43.514Z,4.53
2019-05-17T01:51:09.792Z,3.25
2019-05-17T01:53:36.490Z,4.28
2019-05-17T01:56:02.939Z,4.45
2019-05-17T01:58:29.087Z,3.00
2019-05-17T02:00:57.363Z,3.60
2019-05-17T02:03:23.515Z,5.12
2019-05-17T02:05:49.633Z,4.92
2019-05-17T02:08:17.105Z,4.35
2019-05-17T02:10:43.452Z,4.37
2019-05-17T02:13:10.063Z,5.95
2019-05-17T02:15:37.889Z,5.78
2019-05-17T02:18:06.783Z,4.95
2019-05-17T02:20:32.505Z,4.28
2019-05-17T02:22:58.846Z,3.95
2019-05-17T02:25:27.108Z,3.12
2019-05-17T02:27:53.528Z,2.75
2019-05-17T02:30:23.009Z,3.58
2019-05-17T02:32:48.389Z,3.05
2019-05-17T02:35:15.177Z,4.65
2019-05-17T02:37:43.245Z,3.00
2019-05-17T02:40:13.938Z,3.22
2019-05-17T02:42:38.960Z,3.12
2019-05-17T02:45:06.917Z,2.98
2019-05-17T02:47:33.834Z,3.47
2019-05-17T02:50:00.316Z,3.30
2019-05-17T02:52:26.487Z,4.47
2019-05-17T02:54:52.846Z,4.47
2019-05-17T02:57:19.151Z,3.80
2019-05-17T02:59:45.460Z,2.70
2019-05-17T03:02:12.647Z,4.25
2019-05-17T03:04:39.043Z,4.62
2019-05-17T03:07:05.238Z,4.20
2019-05-17T03:09:33.549Z,3.20
2019-05-17T03:12:02.914Z,3.95
2019-05-17T03:14:27.481Z,3.40
2019-05-17T03:16:53.909Z,4.10
2019-05-17T03:19:23.335Z,4.05
2019-05-17T03:21:48.139Z,5.28
2019-05-17T03:24:14.345Z,4.58
2019-05-17T03:26:43.072Z,3.65
2019-05-17T03:29:08.745Z,4.65
2019-05-17T03:31:42.709Z,4.53
2019-05-17T03:34:06.310Z,4.15
2019-05-17T03:36:36.480Z,4.20
2019-05-17T03:39:02.895Z,4.85
2019-05-17T03:41:29.417Z,4.45
2019-05-17T03:43:55.879Z,4.55
2019-05-17T03:46:23.263Z,4.72
2019-05-17T03:48:52.921Z,6.40
2019-05-17T03:51:17.924Z,5.75
2019-05-17T03:53:44.455Z,5.03
2019-05-17T03:56:13.170Z,7.17
2019-05-17T03:58:38.727Z,5.83
2019-05-17T04:01:04.821Z,5.53
2019-05-17T04:03:35.129Z,4.40
2019-05-17T04:05:59.210Z,4.67
2019-05-17T04:08:25.417Z,4.33
2019-05-17T04:10:52.994Z,5.55
2019-05-17T04:13:19.370Z,4.60
2019-05-17T04:15:45.585Z,5.28
2019-05-17T04:18:13.044Z,6.37
2019-05-17T04:20:39.619Z,6.03
2019-05-17T04:23:05.707Z,5.20
2019-05-17T04:25:33.498Z,7.78
2019-05-17T04:28:03.429Z,6.65
2019-05-17T04:30:32.304Z,6.55
2019-05-17T04:32:57.744Z,5.87
2019-05-17T04:35:23.986Z,6.30
2019-05-17T04:37:53.044Z,6.60
2019-05-17T04:40:18.172Z,5.92
2019-05-17T04:42:44.693Z,8.88
2019-05-17T04:45:12.740Z,7.40
2019-05-17T04:47:39.539Z,5.35
2019-05-17T04:50:05.918Z,7.78
2019-05-17T04:52:33.542Z,6.35
2019-05-17T04:55:03.670Z,4.47
2019-05-17T04:57:28.448Z,6.10
2019-05-17T04:59:54.727Z,5.10
2019-05-17T05:02:23.392Z,5.97
2019-05-17T05:04:49.240Z,4.92
2019-05-17T05:07:15.364Z,6.47
2019-05-17T05:09:42.937Z,3.15
2019-05-17T05:12:12.486Z,5.20
2019-05-17T05:14:38.396Z,3.83
2019-05-17T05:17:07.426Z,4.12
2019-05-17T05:19:33.673Z,5.75
2019-05-17T05:22:04.251Z,5.50
2019-05-17T05:24:28.238Z,5.22
2019-05-17T05:26:54.508Z,5.90
2019-05-17T05:29:21.627Z,3.40
2019-05-17T05:31:48.221Z,4.12
2019-05-17T05:34:14.763Z,6.70
2019-05-17T05:36:41.877Z,5.28
2019-05-17T05:39:08.684Z,6.05
2019-05-17T05:41:34.956Z,5.92
2019-05-17T05:44:05.053Z,4.72
2019-05-17T05:46:31.818Z,2.77
2019-05-17T05:48:58.124Z,3.85
2019-05-17T05:51:24.393Z,4.65
2019-05-17T05:53:52.214Z,4.37
2019-05-17T05:56:18.549Z,4.30
2019-05-17T05:58:44.839Z,3.37
2019-05-17T06:01:12.803Z,2.92
2019-05-17T06:03:41.334Z,4.20
2019-05-17T06:06:07.198Z,4.20
2019-05-17T06:08:35.206Z,4.25
2019-05-17T06:11:02.280Z,4.10
2019-05-17T06:13:28.648Z,2.98
2019-05-17T06:15:54.922Z,2.80
2019-05-17T06:18:22.648Z,1.72
2019-05-17T06:20:48.975Z,1.90
2019-05-17T06:23:15.261Z,3.80
2019-05-17T06:25:43.426Z,1.92
2019-05-17T06:28:11.518Z,2.80
2019-05-17T06:30:37.830Z,3.62
2019-05-17T06:33:04.129Z,3.30
2019-05-17T06:35:32.543Z,3.08
2019-05-17T06:37:58.484Z,3.10
2019-05-17T06:40:24.613Z,4.35
2019-05-17T06:42:52.518Z,3.20
2019-05-17T06:45:19.056Z,2.15
2019-05-17T06:47:45.220Z,3.15
2019-05-17T06:50:14.315Z,4.53
2019-05-17T06:52:43.122Z,3.60
2019-05-17T06:55:24.284Z,4.22
2019-05-17T06:57:52.661Z,6.55
2019-05-17T07:00:23.626Z,4.90
2019-05-17T07:02:49.679Z,3.77
2019-05-17T07:05:19.940Z,3.10
2019-05-17T07:07:45.735Z,4.22
2019-05-17T07:10:12.443Z,4.05
2019-05-17T07:12:54.396Z,4.05
2019-05-17T07:15:07.420Z,4.08
2019-05-17T07:17:33.607Z,3.87
2019-05-17T07:20:05.721Z,3.35
2019-05-17T07:22:31.919Z,5.47
2019-05-17T07:24:59.727Z,4.15
2019-05-17T07:27:37.850Z,4.30
2019-05-17T07:29:54.481Z,4.78
2019-05-17T07:32:20.977Z,4.70
2019-05-17T07:34:47.155Z,4.35
2019-05-17T07:37:13.430Z,3.33
2019-05-17T07:40:01.136Z,3.27
2019-05-17T07:42:26.336Z,1.60
2019-05-17T07:47:41.981Z,4.40
2019-05-17T07:50:11.883Z,4.45
2019-05-17T07:52:39.833Z,3.70
2019-05-17T07:55:15.706Z,5.95
2019-05-17T07:57:43.917Z,5.80
2019-05-17T08:00:10.613Z,4.62
2019-05-17T08:02:39.825Z,3.30
2019-05-17T08:05:05.398Z,3.80
2019-05-17T08:07:31.641Z,3.92
2019-05-17T08:10:00.059Z,4.60
2019-05-17T08:12:25.990Z,4.00
2019-05-17T08:14:52.271Z,3.60
2019-05-17T08:17:19.806Z,4.33
2019-05-17T08:19:46.207Z,3.45
2019-05-17T08:22:12.356Z,3.72
2019-05-17T08:24:39.933Z,2.67
2019-05-17T08:27:06.264Z,4.65
2019-05-17T08:29:32.409Z,3.45
2019-05-17T08:32:03.545Z,2.92
2019-05-17T08:34:29.893Z,2.90
2019-05-17T08:36:56.299Z,3.30
2019-05-17T08:39:39.792Z,4.17
2019-05-17T08:42:01.204Z,2.87
2019-05-17T08:44:26.745Z,2.70
2019-05-17T08:46:53.160Z,3.67
2019-05-17T08:49:20.185Z,3.58
2019-05-17T08:51:46.529Z,2.40
2019-05-17T08:54:13.001Z,3.67
2019-05-17T08:56:40.214Z,2.95
2019-05-17T08:59:09.442Z,3.25
2019-05-17T09:01:38.250Z,2.10
2019-05-17T09:04:03.912Z,3.20
2019-05-17T09:06:30.249Z,2.10
2019-05-17T09:08:56.513Z,2.52
2019-05-17T09:11:22.711Z,1.95
2019-05-17T09:13:57.521Z,3.60
2019-05-17T09:16:19.453Z,3.47
2019-05-17T09:18:45.620Z,3.45
2019-05-17T09:21:12.269Z,2.90
2019-05-17T09:23:39.674Z,3.77
2019-05-17T09:26:12.008Z,3.17
2019-05-17T09:28:39.411Z,2.92
2019-05-17T09:31:06.174Z,3.40
2019-05-17T09:33:32.537Z,2.40
2019-05-17T09:36:00.808Z,2.45
2019-05-17T09:38:29.823Z,2.80
2019-05-17T09:40:56.326Z,2.67
2019-05-17T09:43:22.868Z,2.22
2019-05-17T09:45:50.664Z,2.98
2019-05-17T09:48:19.621Z,2.80
2019-05-17T09:50:46.195Z,2.80
2019-05-17T09:53:12.568Z,3.00
2019-05-17T09:55:39.761Z,2.42
2019-05-17T09:58:06.255Z,3.10
2019-05-17T10:00:33.206Z,3.00
2019-05-17T10:03:00.085Z,3.35
2019-05-17T10:05:26.451Z,2.95
2019-05-17T10:07:56.626Z,2.40
2019-05-17T10:10:22.991Z,2.47
2019-05-17T10:12:49.796Z,3.50
2019-05-17T10:15:16.381Z,2.50
2019-05-17T10:17:42.605Z,2.20
2019-05-17T10:20:10.794Z,3.10
2019-05-17T10:22:40.165Z,3.22
2019-05-17T10:25:30.478Z,2.62
2019-05-17T10:27:56.876Z,2.80
2019-05-17T10:30:23.374Z,2.70
2019-05-17T10:32:50.480Z,2.20
2019-05-17T10:35:19.938Z,2.15
2019-05-17T10:37:46.673Z,2.50
2019-05-17T10:40:13.346Z,2.70
2019-05-17T10:42:39.816Z,1.85
2019-05-17T10:45:07.591Z,2.20
2019-05-17T10:47:33.783Z,2.60
2019-05-17T10:49:59.978Z,3.05
2019-05-17T10:52:26.108Z,2.30
2019-05-17T10:54:52.442Z,1.52
2019-05-17T10:57:19.444Z,3.00
2019-05-17T10:59:45.921Z,1.77
2019-05-17T11:02:12.898Z,2.62
2019-05-17T11:04:40.195Z,2.58
2019-05-17T11:07:06.919Z,2.85
2019-05-17T11:09:33.290Z,3.08
2019-05-17T11:11:59.440Z,3.12
2019-05-17T11:14:25.951Z,2.60
2019-05-17T11:16:52.155Z,3.00
2019-05-17T11:19:18.521Z,3.92
2019-05-17T11:21:44.845Z,2.60
2019-05-17T11:24:11.654Z,2.40
2019-05-17T11:26:37.858Z,2.62
2019-05-17T11:29:04.265Z,3.60
2019-05-17T11:31:30.627Z,3.85
2019-05-17T11:33:57.022Z,3.10
2019-05-17T11:36:23.446Z,2.70
2019-05-17T11:38:51.839Z,2.80
2019-05-17T11:41:21.572Z,3.80
2019-05-17T11:43:46.463Z,2.92
2019-05-17T11:46:15.674Z,2.80
2019-05-17T11:48:45.255Z,2.90
2019-05-17T11:51:11.614Z,3.10
2019-05-17T11:53:37.885Z,3.50
2019-05-17T11:56:04.390Z,3.20
2019-05-17T11:58:30.684Z,2.47
2019-05-17T12:00:57.541Z,3.20
2019-05-17T12:03:24.052Z,2.92
2019-05-17T12:05:50.710Z,1.90
2019-05-17T12:08:17.082Z,2.00
2019-05-17T12:10:43.502Z,1.85
2019-05-17T12:13:10.137Z,2.15
2019-05-17T12:15:44.955Z,1.82
2019-05-17T12:18:19.591Z,1.85
2019-05-17T12:20:59.948Z,3.80
2019-05-17T12:23:31.170Z,2.75
2019-05-17T12:25:57.517Z,3.02
2019-05-17T12:28:27.238Z,3.55
2019-05-17T12:46:45.117Z,2.12
2019-05-17T12:49:14.958Z,2.85
2019-05-17T12:54:49.440Z,1.70
2019-05-17T12:58:01.100Z,1.72
2019-05-17T13:00:45.294Z,3.17
2019-05-17T13:03:17.214Z,4.10
2019-05-17T13:06:14.378Z,3.27
2019-05-17T13:11:36.398Z,3.55
2019-05-17T13:14:03.135Z,2.83
2019-05-17T13:16:29.637Z,3.60
2019-05-17T13:18:55.987Z,2.58
2019-05-17T13:24:35.641Z,3.12
2019-05-17T13:27:40.971Z,2.90
2019-05-17T13:30:38.655Z,3.02
2019-05-17T13:33:47.811Z,2.42
2019-05-17T13:36:14.120Z,2.47
2019-05-17T13:39:15.053Z,1.65
2019-05-17T13:41:57.247Z,2.17
2019-05-17T13:44:23.832Z,2.40
2019-05-17T13:46:50.154Z,3.08
2019-05-17T13:49:34.705Z,3.02
2019-05-17T13:52:00.870Z,2.50
2019-05-17T13:54:34.428Z,2.92
2019-05-17T13:57:02.354Z,3.20
2019-05-17T13:59:30.655Z,2.67
2019-05-17T14:02:15.105Z,3.17
2019-05-17T14:04:41.410Z,2.10
2019-05-17T14:07:07.828Z,1.70
2019-05-17T14:09:34.533Z,2.42
2019-05-17T14:12:03.211Z,2.10
2019-05-17T14:14:29.602Z,1.57
2019-05-17T14:16:55.966Z,2.60
2019-05-17T14:19:31.085Z,2.35
2019-05-17T14:22:05.666Z,2.37
2019-05-17T14:31:44.439Z,1.90
2019-05-17T14:34:20.090Z,2.30
2019-05-17T14:43:46.973Z,2.05
2019-05-17T14:46:38.054Z,2.10
2019-05-17T14:53:05.145Z,3.15
2019-05-17T14:59:15.939Z,3.65
2019-05-17T15:02:19.416Z,2.20
2019-05-17T15:19:52.969Z,2.92
2019-05-17T15:22:19.509Z,2.70
2019-05-17T15:24:49.508Z,1.75
2019-05-17T15:27:15.859Z,1.82
2019-05-17T15:29:42.170Z,2.40
2019-05-17T15:32:08.519Z,2.55
2019-05-17T15:34:36.692Z,2.00
2019-05-17T15:40:22.827Z,2.80
2019-05-17T15:42:49.365Z,3.90
2019-05-17T15:45:15.754Z,4.53
2019-05-17T15:47:42.224Z,4.33
2019-05-17T15:50:10.571Z,3.00
2019-05-17T15:52:37.077Z,2.50
2019-05-17T15:55:04.955Z,2.90
2019-05-17T15:57:33.962Z,3.25
2019-05-17T16:00:00.215Z,2.37
2019-05-17T16:02:26.658Z,2.17
2019-05-17T16:04:53.226Z,2.77
2019-05-17T16:07:19.393Z,2.77
2019-05-17T16:09:47.790Z,3.12
2019-05-17T16:12:14.210Z,2.70
2019-05-17T16:14:40.835Z,3.75
2019-05-17T16:17:07.367Z,2.47
2019-05-17T16:19:33.897Z,2.00
2019-05-17T16:22:00.426Z,2.75
2019-05-17T16:24:26.772Z,3.17
2019-05-17T16:26:52.956Z,2.25
2019-05-17T16:29:19.380Z,1.75
2019-05-17T16:31:45.913Z,2.80
2019-05-17T16:34:12.121Z,2.10
2019-05-17T16:36:38.349Z,2.50
2019-05-17T16:39:08.254Z,2.20
2019-05-17T16:41:34.249Z,1.65
2019-05-17T16:44:00.457Z,2.35
2019-05-17T16:46:26.730Z,2.50
2019-05-17T16:48:52.864Z,3.33
2019-05-17T16:51:19.104Z,3.62
2019-05-17T16:53:45.323Z,3.22
2019-05-17T16:56:11.649Z,4.87
2019-05-17T16:58:38.486Z,3.75
2019-05-17T17:01:04.880Z,3.15
2019-05-17T17:03:43.952Z,3.30
2019-05-17T17:05:59.283Z,4.35
2019-05-17T17:08:25.631Z,3.83
2019-05-17T17:10:51.858Z,3.00
2019-05-17T17:13:31.126Z,3.22
2019-05-17T17:15:46.302Z,2.87
2019-05-17T17:18:12.516Z,4.83
2019-05-17T17:20:38.842Z,3.05
2019-05-17T17:23:05.158Z,4.03
2019-05-17T17:25:31.586Z,2.95
2019-05-17T17:27:57.875Z,3.65
2019-05-17T17:30:24.237Z,3.12
2019-05-17T17:32:50.548Z,3.35
2019-05-17T17:35:16.965Z,3.10
2019-05-17T17:37:43.341Z,2.22
2019-05-17T17:40:10.219Z,2.77
2019-05-17T17:42:36.711Z,2.58
2019-05-17T17:45:05.169Z,3.12
2019-05-17T17:47:31.355Z,2.80
2019-05-17T17:49:57.461Z,2.83
2019-05-17T17:52:23.559Z,4.37
2019-05-17T17:54:49.663Z,4.12
2019-05-17T17:57:15.976Z,2.92
2019-05-17T17:59:42.076Z,2.70
2019-05-17T18:02:08.399Z,2.90
2019-05-17T18:04:34.578Z,4.40
2019-05-17T18:07:04.027Z,3.45
2019-05-17T18:09:30.165Z,2.62
2019-05-17T18:11:56.406Z,2.58
2019-05-17T18:14:22.592Z,2.67
2019-05-17T18:16:48.783Z,2.95
2019-05-17T18:19:15.038Z,3.90
2019-05-17T18:21:41.339Z,3.17
2019-05-17T18:24:07.562Z,2.40
2019-05-17T18:26:33.683Z,2.12
2019-05-17T18:29:00.263Z,2.40
2019-05-17T18:31:26.560Z,2.72
2019-05-17T18:33:52.813Z,3.50
2019-05-17T18:36:19.134Z,2.40
2019-05-17T18:38:49.069Z,2.90
2019-05-17T18:41:15.363Z,2.52
2019-05-17T18:43:41.635Z,2.45
2019-05-17T18:46:07.918Z,4.62
2019-05-17T18:48:34.024Z,3.00
2019-05-17T18:51:00.247Z,2.70
2019-05-17T18:53:26.442Z,3.02
2019-05-17T18:55:52.695Z,3.20
2019-05-17T18:58:18.977Z,3.62
2019-05-17T19:00:45.340Z,3.60
2019-05-17T19:03:11.581Z,3.22
2019-05-17T19:05:39.679Z,4.30
2019-05-17T19:08:05.850Z,3.50
2019-05-17T19:10:31.972Z,2.33
2019-05-17T19:12:58.093Z,2.77
2019-05-17T19:15:24.393Z,2.98
2019-05-17T19:17:50.641Z,5.00
2019-05-17T19:20:18.139Z,4.62
2019-05-17T19:22:44.342Z,4.05
2019-05-17T19:25:11.365Z,3.12
2019-05-17T19:27:37.562Z,3.50
2019-05-17T19:30:06.771Z,2.20
2019-05-17T19:32:32.976Z,2.50
2019-05-17T19:34:59.111Z,3.45
2019-05-17T19:37:25.353Z,4.10
2019-05-17T19:39:51.477Z,3.58
2019-05-17T19:42:17.710Z,2.92
2019-05-17T19:44:58.094Z,2.87
2019-05-17T19:47:12.090Z,2.90
2019-05-17T19:49:38.372Z,3.60
2019-05-17T19:52:04.593Z,3.67
2019-05-17T19:54:31.114Z,2.58
2019-05-17T19:56:57.337Z,2.67
2019-05-17T19:59:23.448Z,3.20
2019-05-17T20:01:49.678Z,3.75
2019-05-17T20:04:15.881Z,4.25
2019-05-17T20:06:42.067Z,4.25
2019-05-17T20:09:08.156Z,6.25
2019-05-17T20:11:34.875Z,6.05
2019-05-17T20:14:01.459Z,4.83
2019-05-17T20:16:27.667Z,4.62
2019-05-17T20:18:53.772Z,4.30
2019-05-17T20:21:20.041Z,3.95
2019-05-17T20:23:46.277Z,4.15
2019-05-17T20:26:12.476Z,3.12
2019-05-17T20:28:38.579Z,3.42
2019-05-17T20:31:05.729Z,2.80
2019-05-17T20:33:33.763Z,3.72
2019-05-17T20:35:59.986Z,3.37
2019-05-17T20:38:26.218Z,3.37
2019-05-17T20:40:52.617Z,3.10
2019-05-17T20:43:18.765Z,3.75
2019-05-17T20:45:44.848Z,2.60
2019-05-17T20:48:10.987Z,3.80
2019-05-17T20:50:40.020Z,3.92
2019-05-17T20:53:17.841Z,5.00
2019-05-17T20:55:34.219Z,2.80
2019-05-17T20:58:00.493Z,3.37
2019-05-17T21:00:26.980Z,2.50
2019-05-17T21:02:53.220Z,3.37
2019-05-17T21:05:19.711Z,3.60
2019-05-17T21:07:46.091Z,3.30
2019-05-17T21:10:12.594Z,3.92
2019-05-17T21:12:38.757Z,3.40
2019-05-17T21:15:05.539Z,3.37
2019-05-17T21:17:31.668Z,3.37
2019-05-17T21:19:57.831Z,2.37
2019-05-17T21:22:24.076Z,3.50
2019-05-17T21:24:50.282Z,4.50
2019-05-17T21:27:16.463Z,3.75
2019-05-17T21:29:42.609Z,2.92
2019-05-17T21:32:08.814Z,4.42
2019-05-17T21:34:34.944Z,3.40
2019-05-17T21:37:01.144Z,3.90
2019-05-17T21:39:27.478Z,3.20
2019-05-17T21:41:53.581Z,3.52
2019-05-17T21:44:19.882Z,2.65
2019-05-17T21:46:56.799Z,5.20
2019-05-17T21:49:14.076Z,4.03
2019-05-17T21:51:40.383Z,4.03
2019-05-17T21:54:06.545Z,4.17
2019-05-17T21:56:32.713Z,4.90
2019-05-17T21:59:01.307Z,4.55
2019-05-17T22:01:31.053Z,4.47
2019-05-17T22:03:57.365Z,4.95
2019-05-17T22:06:23.619Z,6.25
2019-05-17T22:08:50.024Z,4.78
2019-05-17T22:11:16.429Z,6.08
2019-05-17T22:13:44.346Z,4.72
2019-05-17T22:16:19.083Z,5.28
2019-05-17T22:18:38.579Z,4.10
2019-05-17T22:21:05.208Z,5.42
2019-05-17T22:23:31.508Z,4.70
2019-05-17T22:25:57.696Z,6.37
2019-05-17T22:28:23.800Z,6.30
2019-05-17T22:30:49.922Z,5.58
2019-05-17T22:33:16.275Z,5.87
2019-05-17T22:35:42.422Z,4.47
2019-05-17T22:38:08.557Z,4.33
2019-05-17T22:40:34.639Z,6.20
2019-05-17T22:43:01.216Z,6.40
2019-05-17T22:45:27.431Z,6.22
2019-05-17T22:47:53.714Z,5.80
2019-05-17T22:50:19.834Z,3.77
2019-05-17T22:52:46.107Z,5.08
2019-05-17T22:55:12.587Z,6.78
2019-05-17T22:57:38.983Z,5.42
2019-05-17T23:00:09.091Z,4.95
2019-05-17T23:02:35.399Z,6.45
2019-05-17T23:05:04.755Z,5.92
2019-05-17T23:07:30.971Z,5.70
2019-05-17T23:09:57.179Z,5.15
2019-05-17T23:12:23.411Z,5.37
2019-05-17T23:14:49.558Z,5.83
2019-05-17T23:17:15.773Z,5.20
2019-05-17T23:19:42.089Z,5.20
2019-05-17T23:22:08.302Z,4.40
2019-05-17T23:24:34.560Z,5.53
2019-05-17T23:27:00.769Z,5.30
2019-05-17T23:29:26.974Z,4.55
2019-05-17T23:31:53.163Z,4.70
2019-05-17T23:34:19.504Z,7.65
2019-05-17T23:36:45.768Z,4.40
2019-05-17T23:39:12.137Z,4.65
2019-05-17T23:41:38.578Z,5.10
2019-05-17T23:44:05.045Z,5.58
2019-05-17T23:46:31.375Z,5.47
2019-05-17T23:48:57.504Z,6.20
2019-05-17T23:51:23.912Z,5.05
2019-05-17T23:53:50.145Z,5.08
2019-05-17T23:56:16.227Z,4.78
2019-05-17T23:58:42.444Z,5.83
